KFHU/FHU METAR and TAF weather

Enter ICAO airport designator
Station Type Date Time Source
KFHU METAR 2021/09/23 18:34 UTC NOAA

KFHU 231834Z 24004KT 4SM -RA OVC080 15/13 A3023 RMK AO2A SLP177


Station Type Date Time Source
KFHU Decoded METAR 2021/09/23 18:34 UTC NOAA

Fort Huachuca, Libby AAF Ft Huachuca, AZ, United States (KFHU) 46-98N 110-20W
Sep 23, 2021 - 02:34 PM EDT / 2021.09.23 1834 UTC
Wind: from the WSW (240 degrees) at 5 MPH (4 KT):0
Visibility: 4 mile(s):0
Sky conditions: overcast
Weather: light rain
Temperature: 59 F (15 C)
Dew Point: 55 F (13 C)
Relative Humidity: 87%
Pressure (altimeter): 30.23 in. Hg (1023 hPa)
ob: KFHU 231834Z 24004KT 4SM -RA OVC080 15/13 A3023 RMK AO2A SLP177
cycle: 18

Station Type Date Time Source
KFHU TAF 2021/09/23 17:36 UTC NOAA

TAF TAF
AMD KFHU 231720Z 2317/2420 24010G15KT 8000 -SHRA BKN070 OVC100 621209 QNH3018INS
TEMPO 2317/2321 6000 TSRA OVC070CB
BECMG 2320/2321 15009KT 9999 VCSH OVC080 650804 621204 540907 QNH3009INS
BECMG 2323/2324 12011G18KT 9999 NSW BKN080 BKN260 620802 510003 540802 QNH3010INS
BECMG 2402/2403 13007KT 9999 FEW220 QNH3012INS
BECMG 2414/2415 07009KT 9999 FEW080 SCT110 QNH3016INS TX20/2321Z TN16/2411Z

Example: see airport list